createdAt,value
2023-05-21T16:26:13.914Z,7.27
2023-05-21T16:28:46.183Z,7.16
2023-05-21T16:31:18.428Z,7.12
2023-05-21T16:33:50.684Z,6.66
2023-05-21T16:36:22.972Z,6.88
2023-05-21T16:38:55.178Z,6.46
2023-05-21T16:41:30.024Z,6.78
2023-05-21T16:44:02.275Z,6.74
2023-05-21T16:46:34.781Z,22.61
2023-05-21T16:49:07.186Z,11.69
2023-05-21T16:51:39.458Z,6.06
2023-05-21T16:54:11.653Z,6.49
2023-05-21T16:56:46.598Z,6.14
2023-05-21T16:59:18.840Z,6.37
2023-05-21T17:01:51.225Z,6.55
2023-05-21T17:04:23.431Z,6.60
2023-05-21T17:06:55.800Z,6.00
2023-05-21T17:09:28.044Z,6.73
2023-05-21T17:12:02.927Z,6.59
2023-05-21T17:14:36.280Z,6.69
2023-05-21T17:17:10.244Z,7.11
2023-05-21T17:19:44.552Z,6.79
2023-05-21T17:22:17.485Z,7.30
2023-05-21T17:24:49.709Z,7.51
2023-05-21T17:27:24.763Z,7.31
2023-05-21T17:29:57.437Z,7.56
2023-05-21T17:32:29.593Z,8.40
2023-05-21T17:35:01.804Z,8.22
2023-05-21T17:37:34.003Z,8.41
2023-05-21T17:40:07.289Z,7.81
2023-05-21T17:42:42.599Z,8.51
2023-05-21T17:45:15.761Z,9.14
2023-05-21T17:47:48.150Z,8.97
2023-05-21T17:50:20.612Z,9.79
2023-05-21T17:52:52.900Z,10.37
2023-05-21T17:55:25.630Z,10.23
2023-05-21T17:58:00.551Z,9.54
2023-05-21T18:00:32.831Z,11.08
2023-05-21T18:03:05.195Z,11.26
2023-05-21T18:05:37.681Z,11.29
2023-05-21T18:08:10.436Z,12.01
2023-05-21T18:10:42.659Z,12.41
2023-05-21T18:13:17.540Z,12.74
2023-05-21T18:15:49.756Z,12.20
2023-05-21T18:18:21.999Z,11.94
2023-05-21T18:20:54.929Z,12.71
2023-05-21T18:23:28.734Z,12.39
2023-05-21T18:26:01.494Z,12.50
2023-05-21T18:28:37.364Z,12.81
2023-05-21T18:31:09.589Z,12.84
2023-05-21T18:33:42.000Z,13.20
2023-05-21T18:36:14.437Z,12.74
2023-05-21T18:38:46.709Z,13.24
2023-05-21T18:41:20.023Z,12.47
2023-05-21T18:43:54.876Z,13.58
2023-05-21T18:46:27.393Z,13.16
2023-05-21T18:48:59.789Z,13.34
2023-05-21T18:51:32.326Z,13.43
2023-05-21T18:54:04.721Z,13.94
2023-05-21T18:56:37.268Z,14.39
2023-05-21T18:59:12.122Z,14.92
2023-05-21T19:01:44.631Z,14.40
2023-05-21T19:04:19.361Z,15.09
2023-05-21T19:06:51.855Z,15.18
2023-05-21T19:09:24.145Z,15.66
2023-05-21T19:11:56.472Z,16.49
2023-05-21T19:14:31.446Z,15.64
2023-05-21T19:17:03.797Z,17.19
2023-05-21T19:19:36.201Z,17.10
2023-05-21T19:22:09.004Z,17.20
2023-05-21T19:24:41.961Z,17.18
2023-05-21T19:27:14.333Z,16.94
2023-05-21T19:29:49.411Z,17.46
2023-05-21T19:32:23.833Z,16.95
2023-05-21T19:34:57.588Z,17.31
2023-05-21T19:37:30.083Z,16.23
2023-05-21T19:40:02.350Z,17.13
2023-05-21T19:42:34.614Z,17.19
2023-05-21T19:45:11.798Z,16.48
2023-05-21T19:47:44.266Z,16.03
2023-05-21T19:50:16.627Z,16.91
2023-05-21T19:52:48.833Z,17.17
2023-05-21T19:55:21.230Z,17.72
2023-05-21T19:57:53.956Z,16.89
2023-05-21T20:00:29.460Z,18.44
2023-05-21T20:03:01.942Z,18.52
2023-05-21T20:05:34.191Z,18.37
2023-05-21T20:08:06.682Z,17.20
2023-05-21T20:10:39.191Z,17.08
2023-05-21T20:13:11.597Z,16.36
2023-05-21T20:15:48.084Z,16.41
2023-05-21T20:18:21.618Z,16.48
2023-05-21T20:20:55.209Z,16.29
2023-05-21T20:23:27.504Z,16.44
2023-05-21T20:25:59.868Z,16.39
2023-05-21T20:28:32.130Z,16.35
2023-05-21T20:31:07.118Z,15.89
2023-05-21T20:33:41.213Z,15.59
2023-05-21T20:36:15.498Z,16.04
2023-05-21T20:38:48.556Z,16.48
2023-05-21T20:41:21.937Z,16.21
2023-05-21T20:43:55.468Z,15.77
2023-05-21T20:46:31.522Z,16.04
2023-05-21T20:49:04.382Z,16.59
2023-05-21T20:51:36.912Z,16.00
2023-05-21T20:54:09.428Z,16.36
2023-05-21T20:56:45.197Z,16.41
2023-05-21T20:59:17.462Z,16.63
2023-05-21T21:01:52.768Z,15.91
2023-05-21T21:04:25.844Z,16.04
2023-05-21T21:07:00.383Z,16.04
2023-05-21T21:09:32.668Z,15.97
2023-05-21T21:12:21.131Z,17.06
2023-05-21T21:14:57.013Z,16.54
2023-05-21T21:17:31.917Z,16.55
2023-05-21T21:20:05.906Z,16.56
2023-05-21T21:22:38.324Z,16.86
2023-05-21T21:25:11.611Z,16.19
2023-05-21T21:27:44.075Z,16.60
2023-05-21T21:30:17.134Z,16.36
2023-05-21T21:32:52.259Z,16.44
2023-05-21T21:35:24.551Z,17.36
2023-05-21T21:37:56.921Z,17.03
2023-05-21T21:40:29.925Z,17.20
2023-05-21T21:43:03.057Z,17.23
2023-05-21T21:45:35.647Z,16.69
2023-05-21T21:48:11.426Z,16.78
2023-05-21T21:50:43.804Z,17.63
2023-05-21T21:53:16.071Z,17.34
2023-05-21T21:55:48.321Z,17.26
2023-05-21T21:58:20.586Z,17.55
2023-05-21T22:00:52.965Z,17.53
2023-05-21T22:03:27.857Z,17.95
2023-05-21T22:06:00.178Z,17.84
2023-05-21T22:08:32.647Z,18.77
2023-05-21T22:11:04.910Z,18.35
2023-05-21T22:13:37.880Z,17.78
2023-05-21T22:16:11.980Z,18.36
2023-05-21T22:18:46.895Z,17.98
2023-05-21T22:21:19.148Z,18.78
2023-05-21T22:23:51.858Z,17.99
2023-05-21T22:26:24.480Z,18.57
2023-05-21T22:28:56.688Z,18.06
2023-05-21T22:31:29.615Z,18.03
2023-05-21T22:34:04.537Z,18.24
2023-05-21T22:36:38.957Z,18.10
2023-05-21T22:39:11.152Z,18.06
2023-05-21T22:41:43.632Z,18.55
2023-05-21T22:44:15.948Z,19.61
2023-05-21T22:46:49.599Z,19.46
2023-05-21T22:49:24.660Z,19.42
2023-05-21T22:51:59.417Z,19.98
2023-05-21T22:54:31.658Z,19.29
2023-05-21T22:57:04.578Z,20.18
2023-05-21T22:59:37.321Z,19.98
2023-05-21T23:02:10.146Z,20.34
2023-05-21T23:04:45.081Z,20.77
2023-05-21T23:07:17.369Z,20.40
2023-05-21T23:09:51.860Z,19.80
2023-05-21T23:12:24.351Z,19.92
2023-05-21T23:14:56.591Z,20.41
2023-05-21T23:17:28.995Z,19.82
2023-05-21T23:20:03.909Z,19.42
2023-05-21T23:22:36.305Z,19.74
2023-05-21T23:25:09.277Z,20.37
2023-05-21T23:27:41.724Z,19.89
2023-05-21T23:30:14.578Z,19.66
2023-05-21T23:32:46.875Z,19.61
2023-05-21T23:35:21.837Z,19.55
2023-05-21T23:37:54.232Z,19.62
2023-05-21T23:40:26.504Z,20.31
2023-05-21T23:42:58.847Z,20.51
2023-05-21T23:45:31.207Z,20.21
2023-05-21T23:48:03.704Z,21.13
2023-05-21T23:50:38.954Z,21.26
2023-05-21T23:53:11.456Z,21.14
2023-05-21T23:55:44.495Z,21.62
2023-05-21T23:58:16.826Z,22.51
